Nrp Polar — CTEJ — position and weather

sailwx.info

Track history (hours):
 
Tides and Currents Weather Stations Pressure Air Temp Water Temp Dewpoint Dewpoint Depression Visibility Wind Speed Wind Dir Waves Ship Positions

Nrp Polar

Last reported at 2016-May-22 09:33 UTC. Time now 2016-May-29 00:04 UTC.
Position N 38°40' W 009°09'.

; draft 3 m.

Type: Sailing vessel. MMSI: 263142000.

Date/timePositionNaut miles runAvg speedWind from/ knotsBaromVisibWave heightAir tempDewpointWater temp
2016-May-22 09:33N 38°40' W 009°09'4 4.5
2016-May-22 08:33N 38°41' W 009°15'5 5.3
2016-May-22 07:33N 38°41' W 009°21'3 3.0
2016-May-22 06:32N 38°42' W 009°25'0 0.0
2016-May-21 18:04N 38°42' W 009°25'0 0.6
2016-May-21 17:33N 38°42' W 009°25'7 6.5
2016-May-21 16:33N 38°36' W 009°21'7 6.6
2016-May-21 15:32N 38°30' W 009°17'7 6.7
2016-May-21 14:33N 38°24' W 009°13'7 7.5
2016-May-21 13:33N 38°25' W 009°03'7 7.1
2016-May-21 12:33N 38°29' W 008°56'4 0.1
2016-May-20 09:15N 38°26' W 008°59'3 3.6
2016-May-20 08:33N 38°28' W 008°57'3 0.2
2016-May-19 18:12N 38°30' W 008°54'3 4.1
2016-May-19 17:33N 38°28' W 008°57'6 5.9
2016-May-19 16:33N 38°25' W 009°03'7 7.2
2016-May-19 15:33N 38°24' W 009°12'8 8.1
2016-May-19 14:33N 38°31' W 009°17'8 8.4
2016-May-19 13:33N 38°39' W 009°19'6 6.2
2016-May-19 12:33N 38°41' W 009°12'2 2.3
2016-May-19 11:32N 38°40' W 009°09'0 0.0
2016-May-19 10:32N 38°40' W 009°09'0 0.0
2016-May-19 09:31N 38°40' W 009°09'0 0.0
2016-May-18 15:33N 38°40' W 009°09'0 0.0
2016-May-18 14:33N 38°40' W 009°09'0 0.0
2016-May-18 09:31N 38°40' W 009°09'0 0.0
2016-May-17 13:26N 38°40' W 009°09'  
Track history (hours):
 
Tides and Currents Weather Stations Pressure Air Temp Water Temp Dewpoint Dewpoint Depression Visibility Wind Speed Wind Dir Waves Ship Positions

Nrp Polar

Last reported at 2016-May-22 09:33 UTC. Time now 2016-May-29 00:04 UTC.
Position N 38°40' W 009°09'.

; draft 3 m.

Type: Sailing vessel. MMSI: 263142000.

Date/timePositionNaut miles runAvg speedWind from/ knotsBaromVisibWave heightAir tempDewpointWater temp
2016-May-22 09:33N 38°40' W 009°09'4 4.5
2016-May-22 08:33N 38°41' W 009°15'5 5.3
2016-May-22 07:33N 38°41' W 009°21'3 3.0
2016-May-22 06:32N 38°42' W 009°25'0 0.0
2016-May-21 18:04N 38°42' W 009°25'0 0.6
2016-May-21 17:33N 38°42' W 009°25'7 6.5
2016-May-21 16:33N 38°36' W 009°21'7 6.6
2016-May-21 15:32N 38°30' W 009°17'7 6.7
2016-May-21 14:33N 38°24' W 009°13'7 7.5
2016-May-21 13:33N 38°25' W 009°03'7 7.1
2016-May-21 12:33N 38°29' W 008°56'4 0.1
2016-May-20 09:15N 38°26' W 008°59'3 3.6
2016-May-20 08:33N 38°28' W 008°57'3 0.2
2016-May-19 18:12N 38°30' W 008°54'3 4.1
2016-May-19 17:33N 38°28' W 008°57'6 5.9
2016-May-19 16:33N 38°25' W 009°03'7 7.2
2016-May-19 15:33N 38°24' W 009°12'8 8.1
2016-May-19 14:33N 38°31' W 009°17'8 8.4
2016-May-19 13:33N 38°39' W 009°19'6 6.2
2016-May-19 12:33N 38°41' W 009°12'2 2.3
2016-May-19 11:32N 38°40' W 009°09'0 0.0
2016-May-19 10:32N 38°40' W 009°09'0 0.0
2016-May-19 09:31N 38°40' W 009°09'0 0.0
2016-May-18 15:33N 38°40' W 009°09'0 0.0
2016-May-18 14:33N 38°40' W 009°09'0 0.0
2016-May-18 09:31N 38°40' W 009°09'0 0.0
2016-May-17 13:26N 38°40' W 009°09'  

Dump ship's entire track history